createdAt,value
2022-09-07T00:01:26.281Z,21.88
2022-09-07T00:03:56.254Z,13.68
2022-09-07T00:06:25.483Z,13.65
2022-09-07T00:08:54.370Z,13.02
2022-09-07T00:11:23.592Z,9.38
2022-09-07T00:13:52.087Z,10.20
2022-09-07T00:16:24.747Z,18.20
2022-09-07T00:18:55.703Z,8.60
2022-09-07T00:21:25.421Z,16.08
2022-09-07T00:23:55.359Z,12.60
2022-09-07T00:26:26.542Z,14.00
2022-09-07T00:28:58.551Z,11.50
2022-09-07T00:31:29.825Z,21.25
2022-09-07T00:34:00.515Z,19.00
2022-09-07T00:36:29.815Z,18.13
2022-09-07T00:38:59.673Z,16.23
2022-09-07T00:41:28.839Z,17.83
2022-09-07T00:43:58.808Z,11.75
2022-09-07T00:46:32.126Z,10.00
2022-09-07T00:49:03.823Z,14.05
2022-09-07T00:51:34.826Z,14.10
2022-09-07T00:54:07.186Z,16.50
2022-09-07T00:56:38.528Z,12.40
2022-09-07T00:59:08.124Z,14.57
2022-09-07T01:01:39.315Z,12.10
2022-09-07T01:04:09.160Z,18.85
2022-09-07T01:06:39.777Z,14.00
2022-09-07T01:09:11.507Z,17.88
2022-09-07T01:11:40.846Z,12.85
2022-09-07T01:14:12.158Z,9.82
2022-09-07T01:16:53.549Z,14.13
2022-09-07T01:20:01.029Z,10.77
2022-09-07T01:23:07.212Z,11.82
2022-09-07T01:25:43.031Z,13.30
2022-09-07T01:28:17.601Z,10.18
2022-09-07T01:30:53.226Z,11.25
2022-09-07T01:33:39.514Z,10.80
2022-09-07T01:36:17.893Z,15.20
2022-09-07T01:38:48.858Z,9.90
2022-09-07T01:41:22.282Z,11.23
2022-09-07T01:43:55.773Z,11.43
2022-09-07T01:46:29.057Z,12.38
2022-09-07T01:49:04.228Z,12.93
2022-09-07T01:51:35.738Z,9.73
2022-09-07T01:54:09.617Z,8.13
2022-09-07T01:56:41.896Z,13.07
2022-09-07T01:59:16.550Z,14.63
2022-09-07T02:01:48.466Z,16.00
2022-09-07T02:04:20.097Z,11.23
2022-09-07T02:06:51.247Z,11.48
2022-09-07T02:09:24.132Z,12.65
2022-09-07T02:11:53.651Z,10.60
2022-09-07T02:14:29.004Z,11.70
2022-09-07T02:17:00.448Z,16.35
2022-09-07T02:19:45.391Z,12.35
2022-09-07T02:22:17.916Z,10.05
2022-09-07T02:24:51.197Z,8.02
2022-09-07T02:27:23.270Z,10.65
2022-09-07T02:29:54.332Z,15.10
2022-09-07T02:32:23.280Z,12.18
2022-09-07T02:34:52.034Z,14.75
2022-09-07T02:37:22.130Z,10.68
2022-09-07T02:39:51.047Z,11.75
2022-09-07T02:42:20.054Z,11.35
2022-09-07T02:44:49.566Z,14.82
2022-09-07T02:47:31.160Z,12.80
2022-09-07T02:50:19.507Z,13.35
2022-09-07T02:52:55.500Z,13.73
2022-09-07T02:55:30.339Z,13.35
2022-09-07T02:58:13.208Z,10.88
2022-09-07T03:00:46.194Z,9.93
2022-09-07T03:03:23.941Z,12.27
2022-09-07T03:05:58.887Z,17.70
2022-09-07T03:08:31.432Z,12.80
2022-09-07T03:11:00.299Z,10.57
2022-09-07T03:13:30.435Z,15.77
2022-09-07T03:15:59.210Z,10.43
2022-09-07T03:18:29.958Z,14.73
2022-09-07T03:20:58.905Z,10.68
2022-09-07T03:23:27.713Z,10.60
2022-09-07T03:25:56.124Z,8.40
2022-09-07T03:28:25.226Z,13.93
2022-09-07T03:30:54.238Z,8.32
2022-09-07T03:33:24.066Z,12.88
2022-09-07T03:36:00.569Z,11.82
2022-09-07T03:38:29.663Z,10.02
2022-09-07T03:41:00.236Z,11.13
2022-09-07T03:43:29.060Z,13.25
2022-09-07T03:45:59.132Z,9.57
2022-09-07T03:48:28.307Z,10.40
2022-09-07T03:51:00.844Z,11.00
2022-09-07T03:53:32.023Z,9.88
2022-09-07T03:56:01.737Z,10.32
2022-09-07T03:58:31.840Z,10.75
2022-09-07T04:01:01.749Z,11.75
2022-09-07T04:03:30.529Z,16.35
2022-09-07T04:06:01.155Z,10.15
2022-09-07T04:08:31.200Z,11.18
2022-09-07T04:11:00.817Z,13.13
2022-09-07T04:13:30.229Z,15.65
2022-09-07T04:15:59.265Z,13.73
2022-09-07T04:18:28.156Z,8.82
2022-09-07T04:21:01.212Z,14.32
2022-09-07T04:23:29.983Z,10.70
2022-09-07T04:25:58.807Z,9.45
2022-09-07T04:28:27.401Z,7.75
2022-09-07T04:30:56.283Z,10.48
2022-09-07T04:33:25.106Z,9.75
2022-09-07T04:35:53.933Z,8.90
2022-09-07T04:38:24.075Z,8.35
2022-09-07T04:41:00.367Z,17.02
2022-09-07T04:43:29.580Z,13.57
2022-09-07T04:45:58.486Z,7.07
2022-09-07T04:48:27.411Z,9.93
2022-09-07T04:50:56.485Z,13.73
2022-09-07T04:53:26.623Z,11.15
2022-09-07T04:55:55.113Z,12.25
2022-09-07T04:58:24.007Z,11.15
2022-09-07T05:00:52.836Z,9.90
2022-09-07T05:03:21.687Z,10.90
2022-09-07T05:05:50.529Z,11.98
2022-09-07T05:08:19.211Z,15.27
2022-09-07T05:10:53.609Z,10.38
2022-09-07T05:13:22.530Z,13.65
2022-09-07T05:15:51.236Z,12.98
2022-09-07T05:18:20.043Z,11.77
2022-09-07T05:20:48.780Z,8.13
2022-09-07T05:23:17.496Z,7.28
2022-09-07T05:25:46.368Z,23.75
2022-09-07T05:28:19.553Z,18.52
2022-09-07T05:36:28.027Z,7.82
2022-09-07T05:38:57.398Z,6.80
2022-09-07T05:41:27.530Z,12.15
2022-09-07T05:49:15.046Z,10.38
2022-09-07T05:51:43.821Z,11.57
2022-09-07T05:54:12.629Z,7.93
2022-09-07T05:56:41.422Z,12.70
2022-09-07T05:59:11.694Z,18.33
2022-09-07T06:01:40.541Z,14.48
2022-09-07T06:04:09.368Z,9.68
2022-09-07T06:06:40.724Z,8.93
2022-09-07T06:09:12.681Z,14.80
2022-09-07T06:11:42.310Z,10.05
2022-09-07T06:14:13.288Z,10.20
2022-09-07T06:16:41.813Z,12.25
2022-09-07T06:19:10.803Z,9.95
2022-09-07T06:21:39.856Z,9.52
2022-09-07T06:24:08.764Z,13.02
2022-09-07T06:26:37.564Z,13.30
2022-09-07T06:29:06.541Z,9.43
2022-09-07T06:34:25.694Z,14.57
2022-09-07T06:36:54.387Z,12.75
2022-09-07T06:39:23.202Z,6.88
2022-09-07T06:42:00.484Z,10.68
2022-09-07T06:44:32.508Z,7.72
2022-09-07T06:47:03.778Z,5.95
2022-09-07T06:49:32.761Z,6.38
2022-09-07T06:52:01.530Z,8.18
2022-09-07T06:57:19.041Z,4.97
2022-09-07T06:59:47.780Z,9.20
2022-09-07T07:02:17.817Z,5.45
2022-09-07T07:04:46.732Z,6.43
2022-09-07T07:07:16.836Z,10.05
2022-09-07T07:09:45.616Z,7.32
2022-09-07T07:12:14.295Z,6.82
2022-09-07T07:14:45.146Z,5.57
2022-09-07T07:17:14.085Z,3.60
2022-09-07T07:19:43.937Z,6.70
2022-09-07T07:25:01.154Z,6.00
2022-09-07T07:27:32.656Z,9.10
2022-09-07T07:30:01.453Z,10.60
2022-09-07T07:32:30.269Z,3.55
2022-09-07T07:35:00.405Z,6.82
2022-09-07T07:37:28.786Z,5.10
2022-09-07T07:42:46.456Z,7.82
2022-09-07T07:48:05.393Z,3.90
2022-09-07T07:50:35.536Z,3.83
2022-09-07T07:55:54.098Z,5.85
2022-09-07T07:58:22.764Z,3.92
2022-09-07T08:00:54.883Z,3.72
2022-09-07T08:03:25.308Z,2.03
2022-09-07T08:05:55.909Z,2.72
2022-09-07T08:08:25.218Z,1.02
2022-09-07T08:10:54.860Z,1.83
2022-09-07T08:13:23.693Z,1.65
2022-09-07T08:15:52.498Z,6.70
2022-09-07T08:18:21.271Z,6.22
2022-09-07T08:20:50.041Z,3.75
2022-09-07T08:23:20.676Z,3.33
2022-09-07T08:25:52.795Z,2.97
2022-09-07T08:28:22.176Z,2.10
2022-09-07T08:30:50.993Z,3.63
2022-09-07T08:33:19.937Z,2.47
2022-09-07T08:35:58.918Z,4.63
2022-09-07T08:38:30.662Z,3.30
2022-09-07T08:40:59.388Z,1.73
2022-09-07T08:43:39.516Z,2.45
2022-09-07T08:48:39.859Z,3.80
2022-09-07T08:51:12.547Z,5.55
2022-09-07T08:53:45.883Z,8.25
2022-09-07T08:56:20.687Z,8.32
2022-09-07T08:58:50.275Z,5.35
2022-09-07T09:01:36.143Z,4.38
2022-09-07T09:04:22.425Z,2.05
2022-09-07T09:07:11.697Z,5.75
2022-09-07T09:09:58.715Z,4.57
2022-09-07T09:12:37.567Z,5.03
2022-09-07T09:15:14.790Z,2.97
2022-09-07T09:17:48.795Z,5.45
2022-09-07T09:20:24.633Z,4.50
2022-09-07T09:22:53.298Z,1.55
2022-09-07T09:25:27.293Z,11.20
2022-09-07T09:27:55.983Z,3.20
2022-09-07T09:30:26.645Z,12.57
2022-09-07T09:33:15.241Z,3.03
2022-09-07T09:35:44.557Z,5.73
2022-09-07T09:38:37.541Z,1.58
2022-09-07T09:41:08.991Z,1.35
2022-09-07T09:43:42.573Z,4.72
2022-09-07T09:46:21.128Z,9.30
2022-09-07T09:48:58.275Z,3.47
2022-09-07T09:54:24.261Z,1.25
2022-09-07T09:56:54.332Z,4.28
2022-09-07T10:05:29.160Z,5.40
2022-09-07T10:07:58.061Z,5.18
2022-09-07T10:10:27.994Z,2.47
2022-09-07T10:12:58.615Z,6.93
2022-09-07T10:15:33.688Z,3.40
2022-09-07T10:18:07.002Z,3.80
2022-09-07T10:20:37.641Z,3.05
2022-09-07T10:23:10.695Z,5.47
2022-09-07T10:25:40.952Z,0.85
2022-09-07T10:28:19.709Z,1.70
2022-09-07T10:31:03.383Z,6.43
2022-09-07T10:33:41.635Z,3.08
2022-09-07T10:36:15.574Z,1.70
2022-09-07T10:38:48.755Z,3.08
2022-09-07T10:41:18.218Z,1.13
2022-09-07T10:43:50.137Z,1.83
2022-09-07T10:49:27.593Z,3.90
2022-09-07T10:52:12.126Z,4.43
2022-09-07T10:54:53.781Z,2.70
2022-09-07T10:57:33.373Z,3.95
2022-09-07T11:00:09.895Z,10.30
2022-09-07T11:06:00.766Z,3.05
2022-09-07T11:14:20.419Z,3.47
2022-09-07T11:16:53.559Z,4.47
2022-09-07T11:19:39.996Z,5.68
2022-09-07T11:22:17.492Z,2.78
2022-09-07T11:25:29.155Z,1.90
2022-09-07T11:27:42.369Z,1.15
2022-09-07T11:30:19.793Z,7.05
2022-09-07T11:32:54.920Z,1.20
2022-09-07T11:35:30.635Z,4.28
2022-09-07T11:38:04.093Z,2.00
2022-09-07T11:40:36.033Z,3.45
2022-09-07T11:43:11.529Z,2.28
2022-09-07T11:45:42.920Z,1.17
2022-09-07T11:48:19.494Z,5.57
2022-09-07T11:50:51.377Z,6.30
2022-09-07T11:53:22.304Z,5.25
2022-09-07T11:55:56.450Z,5.32
2022-09-07T11:58:52.987Z,1.30
2022-09-07T12:01:30.159Z,3.58
2022-09-07T12:04:25.058Z,6.75
2022-09-07T12:07:27.682Z,6.43
2022-09-07T12:10:08.669Z,2.03
2022-09-07T12:13:09.563Z,1.38
2022-09-07T12:15:46.437Z,3.58
2022-09-07T12:18:29.337Z,4.40
2022-09-07T12:20:59.619Z,2.65
2022-09-07T12:23:30.757Z,1.20
2022-09-07T12:26:34.676Z,2.53
2022-09-07T12:29:20.820Z,1.25
2022-09-07T12:31:58.700Z,4.70
2022-09-07T12:34:55.086Z,4.72
2022-09-07T12:37:44.626Z,1.75
2022-09-07T12:43:34.269Z,3.78
2022-09-07T12:46:03.418Z,2.10
2022-09-07T12:48:46.821Z,1.52
2022-09-07T12:54:20.145Z,4.80
2022-09-07T13:00:00.947Z,3.63
2022-09-07T13:02:41.938Z,5.88
2022-09-07T13:05:18.481Z,3.97
2022-09-07T13:08:20.130Z,8.30
2022-09-07T13:10:50.337Z,9.07
2022-09-07T13:16:30.718Z,7.47
2022-09-07T13:19:02.033Z,3.05
2022-09-07T13:21:35.529Z,3.85
2022-09-07T13:24:47.629Z,2.15
2022-09-07T13:27:44.730Z,3.60
2022-09-07T13:30:31.230Z,2.50
2022-09-07T13:33:38.658Z,6.00
2022-09-07T13:36:15.290Z,3.88
2022-09-07T13:38:44.185Z,3.25
2022-09-07T13:41:15.075Z,1.50
2022-09-07T13:43:49.251Z,2.03
2022-09-07T13:46:43.318Z,6.95
2022-09-07T13:49:24.112Z,6.32
2022-09-07T13:51:59.130Z,4.13
2022-09-07T13:54:37.259Z,4.50
2022-09-07T13:57:13.649Z,4.35
2022-09-07T13:59:44.355Z,3.85
2022-09-07T14:02:24.072Z,2.45
2022-09-07T14:04:54.952Z,5.38
2022-09-07T14:07:29.672Z,3.95
2022-09-07T14:10:13.685Z,2.40
2022-09-07T14:12:47.739Z,5.45
2022-09-07T14:15:22.532Z,2.58
2022-09-07T14:17:56.163Z,5.80
2022-09-07T14:20:25.751Z,2.80
2022-09-07T14:22:56.391Z,3.58
2022-09-07T14:25:26.446Z,1.63
2022-09-07T14:27:57.864Z,3.78
2022-09-07T14:30:29.554Z,3.60
2022-09-07T14:33:01.078Z,2.97
2022-09-07T14:35:33.623Z,1.73
2022-09-07T14:38:07.465Z,2.38
2022-09-07T14:40:36.868Z,3.28
2022-09-07T14:43:05.947Z,5.30
2022-09-07T14:45:37.810Z,7.27
2022-09-07T14:48:14.759Z,3.47
2022-09-07T14:50:57.207Z,2.38
2022-09-07T14:53:34.963Z,1.88
2022-09-07T14:56:09.292Z,4.47
2022-09-07T14:58:37.704Z,1.73
2022-09-07T15:04:18.706Z,3.45
2022-09-07T15:07:03.290Z,3.72
2022-09-07T15:09:37.436Z,1.77
2022-09-07T15:12:33.028Z,2.65
2022-09-07T15:15:26.160Z,5.57
2022-09-07T15:18:03.166Z,8.18
2022-09-07T15:20:41.351Z,3.47
2022-09-07T15:23:13.201Z,3.67
2022-09-07T15:25:46.561Z,6.20
2022-09-07T15:34:09.853Z,5.93
2022-09-07T15:36:40.558Z,5.85
2022-09-07T15:39:17.158Z,2.15
2022-09-07T15:41:47.043Z,7.35
2022-09-07T15:44:16.290Z,5.40
2022-09-07T15:47:43.225Z,7.65
2022-09-07T15:49:35.327Z,3.83
2022-09-07T15:52:05.244Z,2.83
2022-09-07T15:54:36.644Z,2.92
2022-09-07T15:59:57.131Z,2.45
2022-09-07T16:05:15.904Z,2.63
2022-09-07T16:10:36.679Z,5.75
2022-09-07T16:13:11.170Z,5.63
2022-09-07T16:15:45.851Z,6.53
2022-09-07T16:18:16.792Z,3.55
2022-09-07T16:20:52.190Z,5.28
2022-09-07T16:23:21.323Z,8.93
2022-09-07T16:25:59.639Z,7.15
2022-09-07T16:28:28.605Z,4.47
2022-09-07T16:30:57.908Z,5.40
2022-09-07T16:33:33.154Z,9.43
2022-09-07T16:36:09.373Z,8.65
2022-09-07T16:38:47.078Z,6.43
2022-09-07T16:41:17.253Z,4.45
2022-09-07T16:43:46.117Z,7.32
2022-09-07T16:46:16.959Z,13.48
2022-09-07T16:48:46.109Z,5.00
2022-09-07T16:51:19.547Z,7.43
2022-09-07T16:53:50.309Z,5.80
2022-09-07T16:56:20.518Z,3.55
2022-09-07T16:58:50.524Z,4.50
2022-09-07T17:01:20.903Z,4.85
2022-09-07T17:03:50.594Z,12.85
2022-09-07T17:06:22.747Z,7.88
2022-09-07T17:08:51.675Z,2.42
2022-09-07T17:11:21.998Z,8.32
2022-09-07T17:13:50.788Z,8.65
2022-09-07T17:16:21.852Z,14.15
2022-09-07T17:21:42.016Z,8.52
2022-09-07T17:24:11.975Z,7.60
2022-09-07T17:26:42.567Z,6.53
2022-09-07T17:29:13.168Z,18.17
2022-09-07T17:34:33.184Z,17.75
2022-09-07T17:37:03.419Z,4.95
2022-09-07T17:39:33.545Z,10.88
2022-09-07T17:42:02.678Z,3.42
2022-09-07T17:44:37.634Z,7.75
2022-09-07T17:47:07.430Z,11.77
2022-09-07T17:49:35.991Z,12.30
2022-09-07T17:52:08.992Z,8.95
2022-09-07T17:54:38.017Z,7.43
2022-09-07T17:57:07.172Z,16.27
2022-09-07T18:02:24.716Z,13.32
2022-09-07T18:04:53.166Z,6.25
2022-09-07T18:07:23.546Z,10.80
2022-09-07T18:09:52.812Z,16.65
2022-09-07T18:12:22.679Z,14.50
2022-09-07T18:14:51.363Z,14.00
2022-09-07T18:17:20.053Z,15.55
2022-09-07T18:19:48.478Z,7.43
2022-09-07T18:22:17.245Z,11.60
2022-09-07T18:24:47.419Z,14.60
2022-09-07T18:27:16.240Z,8.63
2022-09-07T18:29:45.230Z,9.10
2022-09-07T18:32:14.142Z,10.50
2022-09-07T18:34:46.953Z,16.65
2022-09-07T18:37:19.381Z,7.43
2022-09-07T18:39:50.230Z,11.38
2022-09-07T18:42:19.158Z,6.93
2022-09-07T18:47:39.899Z,15.13
2022-09-07T18:50:09.587Z,5.82
2022-09-07T18:52:59.182Z,12.02
2022-09-07T18:55:29.100Z,9.15
2022-09-07T18:57:58.015Z,13.25
2022-09-07T19:00:27.057Z,10.80
2022-09-07T19:02:55.921Z,8.80
2022-09-07T19:08:13.693Z,24.55
2022-09-07T19:10:44.493Z,6.72
2022-09-07T19:13:13.998Z,11.32
2022-09-07T19:15:42.737Z,10.40
2022-09-07T19:18:12.878Z,9.85
2022-09-07T19:20:41.612Z,11.48
2022-09-07T19:23:10.476Z,6.25
2022-09-07T19:25:43.467Z,10.68
2022-09-07T19:28:12.351Z,7.35
2022-09-07T19:30:41.291Z,7.80
2022-09-07T19:33:12.208Z,9.95
2022-09-07T19:35:40.918Z,9.85
2022-09-07T19:38:09.743Z,10.10
2022-09-07T19:40:38.151Z,9.90
2022-09-07T19:43:08.367Z,11.90
2022-09-07T19:45:39.717Z,10.02
2022-09-07T19:48:09.634Z,8.27
2022-09-07T19:50:39.391Z,9.90
2022-09-07T19:53:08.109Z,11.80
2022-09-07T19:55:36.899Z,12.63
2022-09-07T19:58:08.033Z,11.00
2022-09-07T20:00:41.467Z,12.10
2022-09-07T20:03:10.893Z,10.80
2022-09-07T20:05:40.237Z,10.45
2022-09-07T20:08:09.362Z,11.48
2022-09-07T20:10:38.192Z,14.60
2022-09-07T20:13:06.939Z,6.80
2022-09-07T20:15:35.605Z,8.75
2022-09-07T20:18:05.900Z,10.20
2022-09-07T20:20:34.861Z,9.20
2022-09-07T20:23:03.621Z,10.00
2022-09-07T20:25:32.208Z,11.07
2022-09-07T20:28:01.055Z,9.65
2022-09-07T20:30:33.531Z,13.95
2022-09-07T20:33:02.646Z,15.52
2022-09-07T20:35:34.525Z,8.13
2022-09-07T20:38:04.672Z,12.07
2022-09-07T20:40:33.655Z,19.35
2022-09-07T20:43:02.409Z,10.13
2022-09-07T20:45:36.276Z,7.65
2022-09-07T20:48:05.142Z,18.25
2022-09-07T20:50:35.256Z,15.00
2022-09-07T20:53:04.000Z,13.93
2022-09-07T20:55:32.360Z,12.95
2022-09-07T20:58:01.089Z,8.77
2022-09-07T21:00:30.037Z,10.55
2022-09-07T21:02:58.736Z,9.45
2022-09-07T21:05:27.579Z,12.45
2022-09-07T21:07:57.377Z,6.57
2022-09-07T21:10:26.158Z,13.25
2022-09-07T21:12:55.793Z,11.25
2022-09-07T21:15:24.559Z,6.70
2022-09-07T21:17:53.198Z,9.63
2022-09-07T21:20:21.865Z,12.00
2022-09-07T21:22:50.207Z,11.27
2022-09-07T21:25:20.223Z,11.45
2022-09-07T21:27:48.936Z,7.72
2022-09-07T21:30:17.728Z,10.75
2022-09-07T21:32:46.384Z,9.70
2022-09-07T21:35:15.069Z,9.30
2022-09-07T21:37:43.842Z,10.30
2022-09-07T21:40:13.071Z,8.73
2022-09-07T21:42:43.277Z,10.05
2022-09-07T21:45:12.090Z,10.60
2022-09-07T21:47:43.106Z,11.70
2022-09-07T21:50:11.790Z,8.82
2022-09-07T21:52:40.276Z,9.02
2022-09-07T21:55:09.985Z,10.73
2022-09-07T21:57:38.832Z,11.07
2022-09-07T22:00:10.730Z,9.18
2022-09-07T22:02:39.526Z,9.85
2022-09-07T22:05:10.198Z,6.63
2022-09-07T22:07:38.564Z,10.13
2022-09-07T22:10:08.909Z,8.88
2022-09-07T22:12:37.652Z,5.43
2022-09-07T22:15:08.606Z,15.57
2022-09-07T22:17:37.342Z,9.02
2022-09-07T22:20:06.561Z,8.48
2022-09-07T22:22:35.628Z,10.00
2022-09-07T22:25:05.502Z,11.82
2022-09-07T22:27:34.194Z,10.07
2022-09-07T22:30:02.986Z,8.50
2022-09-07T22:32:33.046Z,12.68
2022-09-07T22:35:01.327Z,11.13
2022-09-07T22:37:29.244Z,16.20
2022-09-07T22:39:57.591Z,8.30
2022-09-07T22:42:26.534Z,11.07
2022-09-07T22:44:55.270Z,9.68
2022-09-07T22:47:23.617Z,9.02
2022-09-07T22:49:53.367Z,10.88
2022-09-07T22:52:24.060Z,10.25
2022-09-07T22:54:52.341Z,9.80
2022-09-07T22:57:20.664Z,8.98
2022-09-07T22:59:48.909Z,16.73
2022-09-07T23:02:17.247Z,10.75
2022-09-07T23:04:45.289Z,12.68
2022-09-07T23:07:17.325Z,16.23
2022-09-07T23:09:46.979Z,9.15
2022-09-07T23:12:15.542Z,13.27
2022-09-07T23:14:43.854Z,10.48
2022-09-07T23:17:12.430Z,11.18
2022-09-07T23:19:40.310Z,11.48
2022-09-07T23:22:08.593Z,12.60
2022-09-07T23:24:40.248Z,10.23
2022-09-07T23:27:08.526Z,6.15
2022-09-07T23:29:36.790Z,13.05
2022-09-07T23:32:05.175Z,8.50
2022-09-07T23:34:33.000Z,9.65
2022-09-07T23:37:01.170Z,11.48
2022-09-07T23:39:29.732Z,11.65
2022-09-07T23:41:59.705Z,9.50
2022-09-07T23:44:27.874Z,17.20
2022-09-07T23:46:55.832Z,10.15
2022-09-07T23:49:24.154Z,16.00
2022-09-07T23:51:52.705Z,6.25
2022-09-07T23:54:21.053Z,9.27
2022-09-07T23:56:49.432Z,10.57
2022-09-07T23:59:18.972Z,10.68
